createdAt,value
2017-05-04T00:02:13.955Z,11.70
2017-05-04T00:04:40.910Z,11.70
2017-05-04T00:07:07.974Z,11.70
2017-05-04T00:09:35.782Z,11.70
2017-05-04T00:12:03.469Z,11.70
2017-05-04T00:14:30.454Z,11.70
2017-05-04T00:16:57.424Z,11.70
2017-05-04T00:19:25.291Z,11.70
2017-05-04T00:21:52.213Z,11.70
2017-05-04T00:24:19.176Z,11.60
2017-05-04T00:26:46.136Z,11.60
2017-05-04T00:29:14.346Z,11.60
2017-05-04T00:31:41.291Z,11.50
2017-05-04T00:34:08.321Z,11.50
2017-05-04T00:36:35.999Z,11.40
2017-05-04T00:39:02.945Z,11.40
2017-05-04T00:41:29.964Z,11.40
2017-05-04T00:43:57.649Z,11.40
2017-05-04T00:46:24.574Z,11.30
2017-05-04T00:48:52.294Z,11.30
2017-05-04T00:51:19.262Z,11.30
2017-05-04T00:53:46.221Z,11.30
2017-05-04T00:56:13.162Z,11.40
2017-05-04T00:58:40.149Z,11.40
2017-05-04T01:01:07.088Z,11.40
2017-05-04T01:03:34.050Z,11.40
2017-05-04T01:06:01.031Z,11.40
2017-05-04T01:08:28.101Z,11.40
2017-05-04T01:10:55.015Z,11.40
2017-05-04T01:13:21.972Z,11.40
2017-05-04T01:15:48.911Z,11.40
2017-05-04T01:18:15.883Z,11.40
2017-05-04T01:20:42.839Z,11.40
2017-05-04T01:23:10.568Z,11.40
2017-05-04T01:25:38.670Z,11.30
2017-05-04T01:28:05.624Z,11.30
2017-05-04T01:30:33.495Z,11.30
2017-05-04T01:33:00.519Z,11.30
2017-05-04T01:35:27.493Z,11.40
2017-05-04T01:47:44.520Z,11.40
2017-05-04T01:50:11.445Z,11.40
2017-05-04T01:52:38.372Z,11.40
2017-05-04T01:55:06.118Z,11.40
2017-05-04T01:57:33.813Z,11.40
2017-05-04T02:00:00.759Z,11.40
2017-05-04T02:02:27.812Z,11.40
2017-05-04T02:04:54.773Z,11.30
2017-05-04T02:07:21.736Z,11.30
2017-05-04T02:09:48.684Z,11.30
2017-05-04T02:12:16.409Z,11.30
2017-05-04T02:14:43.388Z,11.30
2017-05-04T02:17:10.348Z,11.30
2017-05-04T02:19:37.297Z,11.30
2017-05-04T02:22:05.968Z,11.30
2017-05-04T02:24:33.831Z,11.40
2017-05-04T02:40:00.870Z,11.20
2017-05-04T02:42:27.829Z,11.30
2017-05-04T02:44:54.820Z,11.20
2017-05-04T02:47:22.505Z,11.20
2017-05-04T02:49:49.496Z,11.20
2017-05-04T02:52:16.427Z,11.20
2017-05-04T02:54:43.390Z,11.10
2017-05-04T02:57:10.397Z,11.20
2017-05-04T02:59:37.369Z,11.20
2017-05-04T03:02:04.344Z,11.20
2017-05-04T03:04:31.996Z,11.10
2017-05-04T03:06:58.924Z,11.10
2017-05-04T03:09:25.896Z,11.10
2017-05-04T03:11:52.830Z,11.10
2017-05-04T03:14:19.795Z,11.10
2017-05-04T03:16:47.511Z,11.10
2017-05-04T03:19:14.461Z,11.10
2017-05-04T03:21:41.404Z,11.10
2017-05-04T03:24:08.374Z,11.10
2017-05-04T03:26:35.333Z,11.10
2017-05-04T03:29:02.307Z,11.10
2017-05-04T03:31:29.247Z,11.20
2017-05-04T03:33:56.192Z,11.20
2017-05-04T03:36:23.884Z,11.10
2017-05-04T03:38:50.831Z,11.20
2017-05-04T03:41:17.779Z,11.10
2017-05-04T03:43:44.838Z,11.10
2017-05-04T03:46:11.806Z,11.10
2017-05-04T03:48:38.762Z,11.00
2017-05-04T03:51:05.757Z,11.00
2017-05-04T03:53:32.711Z,11.00
2017-05-04T03:55:59.632Z,11.00
2017-05-04T03:58:26.598Z,11.00
2017-05-04T04:00:53.559Z,11.10
2017-05-04T04:03:20.566Z,11.10
2017-05-04T04:05:48.387Z,11.10
2017-05-04T04:08:15.348Z,11.10
2017-05-04T04:10:42.283Z,11.10
2017-05-04T04:13:09.261Z,11.10
2017-05-04T04:15:36.951Z,11.00
2017-05-04T04:18:03.889Z,11.00
2017-05-04T04:20:30.932Z,11.00
2017-05-04T04:22:57.856Z,11.00
2017-05-04T04:25:24.864Z,11.00
2017-05-04T04:27:51.535Z,11.10
2017-05-04T04:30:18.252Z,11.00
2017-05-04T04:32:45.202Z,11.00
2017-05-04T04:35:12.307Z,11.00
2017-05-04T04:37:39.272Z,11.00
2017-05-04T04:40:06.261Z,11.00
2017-05-04T04:42:33.237Z,11.00
2017-05-04T04:45:00.933Z,11.00
2017-05-04T04:47:27.903Z,11.10
2017-05-04T04:49:54.902Z,11.10
2017-05-04T04:52:22.572Z,11.10
2017-05-04T04:54:50.022Z,11.10
2017-05-04T04:57:17.923Z,11.10
2017-05-04T04:59:44.906Z,11.10
2017-05-04T05:02:12.458Z,11.10
2017-05-04T05:04:39.439Z,11.10
2017-05-04T05:07:06.402Z,11.20
2017-05-04T05:09:33.392Z,11.30
2017-05-04T05:12:00.351Z,11.30
2017-05-04T05:14:30.390Z,11.40
2017-05-04T05:16:58.241Z,11.30
2017-05-04T05:19:25.263Z,11.30
2017-05-04T05:21:52.305Z,11.30
2017-05-04T05:24:19.272Z,11.30
2017-05-04T05:26:46.261Z,11.30
2017-05-04T05:29:13.259Z,11.30
2017-05-04T05:31:40.260Z,11.30
2017-05-04T05:34:07.290Z,11.30
2017-05-04T05:36:35.546Z,11.30
2017-05-04T05:39:02.603Z,11.40
2017-05-04T05:41:30.955Z,11.40
2017-05-04T05:43:57.956Z,11.50
2017-05-04T05:46:24.923Z,11.50
2017-05-04T05:48:52.291Z,11.50
2017-05-04T05:51:19.347Z,11.60
2017-05-04T05:53:46.310Z,11.70
2017-05-04T05:56:13.749Z,11.70
2017-05-04T05:58:41.940Z,11.60
2017-05-04T06:01:09.666Z,11.60
2017-05-04T06:03:36.648Z,11.60
2017-05-04T06:06:03.591Z,11.70
2017-05-04T06:08:33.235Z,11.80
2017-05-04T06:11:02.776Z,11.90
2017-05-04T06:13:29.759Z,12.20
2017-05-04T06:15:56.720Z,12.60
2017-05-04T06:18:23.818Z,12.60
2017-05-04T06:20:50.783Z,12.50
2017-05-04T06:23:17.753Z,12.40
2017-05-04T06:25:44.736Z,12.40
2017-05-04T06:28:11.687Z,12.40
2017-05-04T06:30:38.693Z,12.40
2017-05-04T06:33:05.689Z,12.30
2017-05-04T06:35:32.324Z,12.30
2017-05-04T06:37:59.283Z,12.30
2017-05-04T06:40:26.509Z,12.30
2017-05-04T06:42:53.523Z,12.50
2017-05-04T06:45:20.500Z,12.50
2017-05-04T06:47:48.214Z,12.50
2017-05-04T06:50:15.207Z,12.50
2017-05-04T06:52:41.825Z,12.60
2017-05-04T06:55:09.902Z,12.70
2017-05-04T06:57:37.523Z,12.80
2017-05-04T07:00:04.490Z,12.90
2017-05-04T07:02:31.444Z,12.90
2017-05-04T07:04:59.229Z,12.90
2017-05-04T07:07:26.947Z,12.90
2017-05-04T07:09:54.575Z,13.10
2017-05-04T07:12:21.559Z,13.10
2017-05-04T07:14:48.499Z,13.10
2017-05-04T07:17:15.459Z,12.90
2017-05-04T07:19:43.438Z,13.00
2017-05-04T07:22:10.387Z,13.00
2017-05-04T07:24:37.663Z,12.80
2017-05-04T07:27:06.286Z,12.60
2017-05-04T07:29:33.233Z,12.40
2017-05-04T07:32:00.224Z,12.30
2017-05-04T07:34:27.941Z,12.30
2017-05-04T07:36:54.915Z,12.20
2017-05-04T07:39:21.891Z,12.20
2017-05-04T07:41:50.662Z,12.20
2017-05-04T07:44:17.605Z,12.20
2017-05-04T07:46:44.609Z,12.20
2017-05-04T07:49:11.595Z,12.10
2017-05-04T07:51:38.615Z,12.10
2017-05-04T07:54:05.575Z,12.10
2017-05-04T07:56:32.530Z,12.10
2017-05-04T07:58:59.433Z,12.20
2017-05-04T08:01:26.437Z,12.40
2017-05-04T08:03:53.426Z,12.40
2017-05-04T08:06:20.467Z,12.60
2017-05-04T08:08:48.339Z,12.80
2017-05-04T08:11:15.835Z,13.00
2017-05-04T08:23:32.804Z,14.20
2017-05-04T08:25:59.798Z,14.30
2017-05-04T08:28:26.736Z,14.30
2017-05-04T08:30:53.769Z,14.20
2017-05-04T08:33:20.725Z,14.30
2017-05-04T08:35:47.672Z,14.40
2017-05-04T08:38:14.652Z,14.70
2017-05-04T08:40:42.377Z,14.50
2017-05-04T08:43:09.387Z,14.60
2017-05-04T08:45:36.364Z,14.80
2017-05-04T08:48:03.295Z,15.10
2017-05-04T08:50:30.233Z,15.40
2017-05-04T08:52:57.213Z,15.30
2017-05-04T08:55:25.207Z,15.70
2017-05-04T08:57:52.986Z,15.90
2017-05-04T09:00:21.055Z,16.10
2017-05-04T09:02:48.828Z,16.40
2017-05-04T09:05:15.815Z,16.50
2017-05-04T09:07:42.783Z,16.40
2017-05-04T09:10:09.742Z,16.30
2017-05-04T09:12:36.722Z,16.20
2017-05-04T09:15:03.687Z,16.10
2017-05-04T09:17:30.638Z,16.00
2017-05-04T09:19:57.590Z,16.00
2017-05-04T09:22:24.584Z,16.00
2017-05-04T09:24:52.341Z,15.80
2017-05-04T09:27:19.315Z,15.80
2017-05-04T09:29:46.272Z,15.90
2017-05-04T09:32:13.322Z,16.00
2017-05-04T09:34:40.248Z,16.10
2017-05-04T09:37:07.966Z,16.30
2017-05-04T09:39:34.925Z,16.20
2017-05-04T09:42:01.947Z,16.20
2017-05-04T09:44:28.949Z,16.50
2017-05-04T09:46:56.681Z,16.50
2017-05-04T09:49:23.684Z,16.40
2017-05-04T09:51:51.651Z,16.00
2017-05-04T09:54:18.635Z,15.50
2017-05-04T09:56:45.624Z,15.30
2017-05-04T09:59:13.298Z,15.20
2017-05-04T10:01:40.259Z,15.20
2017-05-04T10:04:07.324Z,15.20
2017-05-04T10:06:34.276Z,15.10
2017-05-04T10:09:01.222Z,15.20
2017-05-04T10:11:29.195Z,15.10
2017-05-04T10:13:56.176Z,15.00
2017-05-04T10:16:23.882Z,14.90
2017-05-04T10:18:50.822Z,14.90
2017-05-04T10:21:17.796Z,14.80
2017-05-04T10:23:45.728Z,14.60
2017-05-04T10:26:12.680Z,14.50
2017-05-04T10:28:39.911Z,14.40
2017-05-04T10:31:07.604Z,14.40
2017-05-04T10:33:34.551Z,14.40
2017-05-04T10:36:01.537Z,14.40
2017-05-04T10:38:28.480Z,14.40
2017-05-04T10:40:56.303Z,14.40
2017-05-04T10:43:23.269Z,14.50
2017-05-04T10:45:50.242Z,14.50
2017-05-04T10:48:17.255Z,14.50
2017-05-04T10:50:44.207Z,14.60
2017-05-04T10:53:11.147Z,14.60
2017-05-04T10:55:38.143Z,14.60
2017-05-04T10:58:05.076Z,14.60
2017-05-04T11:00:32.832Z,14.60
2017-05-04T11:02:59.794Z,14.70
2017-05-04T11:05:26.758Z,14.70
2017-05-04T11:07:54.491Z,14.70
2017-05-04T11:10:21.432Z,14.70
2017-05-04T11:12:48.391Z,14.50
2017-05-04T11:15:15.429Z,14.30
2017-05-04T11:17:42.432Z,14.20
2017-05-04T11:20:09.237Z,14.10
2017-05-04T11:22:37.390Z,14.10
2017-05-04T11:25:06.144Z,14.10
2017-05-04T11:27:34.933Z,14.00
2017-05-04T11:30:02.163Z,13.70
2017-05-04T11:32:29.884Z,13.50
2017-05-04T11:34:57.223Z,13.60
2017-05-04T11:37:24.168Z,13.50
2017-05-04T11:39:51.173Z,13.50
2017-05-04T11:42:18.183Z,13.70
2017-05-04T11:44:46.442Z,13.60
2017-05-04T11:47:13.442Z,13.60
2017-05-04T11:49:41.163Z,13.70
2017-05-04T11:52:08.810Z,13.90
2017-05-04T11:54:35.850Z,14.10
2017-05-04T11:57:02.820Z,14.30
2017-05-04T11:59:30.351Z,14.30
2017-05-04T12:01:57.393Z,14.10
2017-05-04T12:14:09.581Z,14.30
2017-05-04T12:16:37.251Z,14.30
2017-05-04T12:19:05.229Z,14.10
2017-05-04T12:21:32.250Z,13.90
2017-05-04T12:23:59.257Z,13.80
2017-05-04T12:26:27.058Z,13.70
2017-05-04T12:28:54.200Z,13.60
2017-05-04T12:31:21.810Z,13.50
2017-05-04T12:33:49.820Z,13.60
2017-05-04T12:36:18.332Z,13.60
2017-05-04T12:38:45.325Z,13.70
2017-05-04T12:41:12.361Z,13.70
2017-05-04T12:43:39.336Z,13.80
2017-05-04T12:46:08.287Z,13.90
2017-05-04T12:48:35.312Z,14.00
2017-05-04T12:51:02.348Z,14.00
2017-05-04T12:53:29.861Z,14.00
2017-05-04T12:55:56.893Z,13.90
2017-05-04T12:58:24.000Z,13.90
2017-05-04T13:00:51.033Z,14.00
2017-05-04T13:03:19.483Z,14.00
2017-05-04T13:05:47.222Z,14.20
2017-05-04T13:08:14.235Z,14.40
2017-05-04T13:10:42.979Z,14.50
2017-05-04T13:13:09.939Z,14.50
2017-05-04T13:15:39.660Z,14.50
2017-05-04T13:18:08.528Z,14.80
2017-05-04T13:20:36.286Z,15.00
2017-05-04T13:23:03.293Z,14.90
2017-05-04T13:25:32.945Z,14.60
2017-05-04T13:27:59.936Z,14.50
2017-05-04T13:30:27.624Z,14.30
2017-05-04T13:32:55.597Z,14.20
2017-05-04T13:35:22.610Z,14.20
2017-05-04T13:37:52.637Z,14.10
2017-05-04T13:40:22.002Z,14.00
2017-05-04T13:42:49.051Z,14.00
2017-05-04T13:45:31.907Z,14.10
2017-05-04T13:47:58.869Z,14.10
2017-05-04T13:50:25.902Z,14.00
2017-05-04T13:52:53.380Z,13.90
2017-05-04T13:55:20.395Z,13.90
2017-05-04T13:57:48.609Z,13.80
2017-05-04T14:00:17.064Z,13.80
2017-05-04T14:02:45.632Z,13.80
2017-05-04T14:05:13.411Z,13.70
2017-05-04T14:07:41.152Z,13.60
2017-05-04T14:10:07.773Z,13.50
2017-05-04T14:12:34.734Z,13.40
2017-05-04T14:15:01.732Z,13.40
2017-05-04T14:17:32.003Z,13.40
2017-05-04T14:19:59.021Z,13.30
2017-05-04T14:22:26.242Z,13.10
2017-05-04T14:24:54.356Z,13.10
2017-05-04T14:27:21.302Z,13.10
2017-05-04T14:29:48.242Z,13.10
2017-05-04T14:42:00.316Z,13.20
2017-05-04T14:44:27.299Z,13.20
2017-05-04T14:46:56.087Z,13.30
2017-05-04T14:49:24.664Z,13.40
2017-05-04T14:51:51.707Z,13.40
2017-05-04T14:54:18.754Z,13.40
2017-05-04T14:56:45.733Z,13.40
2017-05-04T14:59:12.517Z,13.50
2017-05-04T15:01:39.553Z,13.50
2017-05-04T15:04:06.768Z,13.60
2017-05-04T15:06:34.485Z,13.50
2017-05-04T15:22:03.273Z,13.80
2017-05-04T15:24:30.792Z,13.90
2017-05-04T15:26:58.796Z,13.90
2017-05-04T15:29:25.771Z,14.00
2017-05-04T15:31:53.656Z,14.00
2017-05-04T15:34:21.690Z,14.00
2017-05-04T15:37:03.669Z,14.00
2017-05-04T15:39:30.711Z,14.10
2017-05-04T15:41:57.637Z,14.20
2017-05-04T15:44:24.560Z,14.30
2017-05-04T15:46:51.530Z,14.40
2017-05-04T15:49:18.503Z,14.50
2017-05-04T15:51:45.844Z,14.70
2017-05-04T15:54:12.804Z,14.80
2017-05-04T15:56:39.849Z,15.00
2017-05-04T15:59:06.816Z,15.10
2017-05-04T16:01:34.553Z,15.10
2017-05-04T16:04:01.647Z,15.10
2017-05-04T16:06:28.669Z,15.10
2017-05-04T16:08:55.685Z,15.20
2017-05-04T16:11:22.655Z,15.20
2017-05-04T16:13:49.691Z,15.10
2017-05-04T16:16:16.722Z,15.00
2017-05-04T16:18:43.735Z,15.10
2017-05-04T16:21:10.344Z,15.30
2017-05-04T16:23:37.871Z,15.50
2017-05-04T16:26:05.093Z,15.60
2017-05-04T16:28:32.810Z,15.60
2017-05-04T16:30:59.845Z,15.60
2017-05-04T16:33:27.495Z,15.70
2017-05-04T16:35:54.627Z,15.80
2017-05-04T16:38:22.618Z,15.70
2017-05-04T16:40:49.704Z,15.70
2017-05-04T16:43:16.787Z,15.80
2017-05-04T16:45:44.545Z,15.90
2017-05-04T16:48:12.224Z,15.60
2017-05-04T16:50:38.782Z,15.30
2017-05-04T16:53:05.756Z,15.10
2017-05-04T16:55:32.744Z,15.20
2017-05-04T16:58:00.461Z,15.30
2017-05-04T17:00:28.363Z,15.40
2017-05-04T17:02:56.188Z,15.40
2017-05-04T17:05:23.785Z,15.50
2017-05-04T17:07:50.784Z,15.50
2017-05-04T17:10:19.543Z,15.50
2017-05-04T17:12:47.277Z,15.40
2017-05-04T17:15:14.298Z,15.40
2017-05-04T17:17:42.212Z,15.40
2017-05-04T17:20:09.234Z,15.40
2017-05-04T17:22:36.185Z,15.40
2017-05-04T17:25:03.143Z,15.50
2017-05-04T17:27:30.872Z,15.50
2017-05-04T17:29:57.817Z,15.50
2017-05-04T17:32:25.380Z,15.40
2017-05-04T17:34:52.361Z,15.50
2017-05-04T17:37:19.310Z,15.40
2017-05-04T17:39:46.304Z,15.40
2017-05-04T17:42:13.369Z,15.40
2017-05-04T17:44:40.571Z,15.30
2017-05-04T17:47:08.304Z,15.30
2017-05-04T17:49:35.942Z,15.10
2017-05-04T17:52:03.084Z,14.80
2017-05-04T17:54:30.088Z,14.60
2017-05-04T17:56:57.764Z,14.50
2017-05-04T17:59:25.553Z,14.40
2017-05-04T18:01:52.648Z,14.40
2017-05-04T18:04:19.647Z,14.40
2017-05-04T18:06:48.131Z,14.30
2017-05-04T18:09:15.207Z,14.20
2017-05-04T18:11:42.176Z,14.20
2017-05-04T18:14:09.179Z,14.10
2017-05-04T18:16:36.132Z,14.10
2017-05-04T18:19:03.130Z,14.10
2017-05-04T18:21:30.925Z,14.00
2017-05-04T18:23:57.911Z,14.00
2017-05-04T18:26:25.937Z,14.00
2017-05-04T18:28:52.974Z,13.90
2017-05-04T18:31:20.682Z,13.80
2017-05-04T18:33:47.742Z,13.80
2017-05-04T18:36:14.736Z,13.80
2017-05-04T18:38:42.491Z,13.70
2017-05-04T18:41:10.209Z,13.60
2017-05-04T18:43:37.187Z,13.50
2017-05-04T18:46:04.255Z,13.50
2017-05-04T18:48:32.012Z,13.50
2017-05-04T18:50:59.859Z,13.40
2017-05-04T18:53:26.887Z,13.40
2017-05-04T18:55:55.697Z,13.40
2017-05-04T18:58:22.684Z,13.30
2017-05-04T19:00:50.120Z,13.30
2017-05-04T19:03:18.923Z,13.30
2017-05-04T19:05:46.670Z,13.20
2017-05-04T19:08:13.650Z,13.20
2017-05-04T19:10:40.597Z,13.20
2017-05-04T19:13:07.865Z,13.20
2017-05-04T19:15:35.800Z,13.20
2017-05-04T19:18:04.165Z,13.30
2017-05-04T19:20:31.871Z,13.20
2017-05-04T19:23:00.172Z,13.20
2017-05-04T19:25:27.577Z,13.20
2017-05-04T19:27:55.247Z,13.20
2017-05-04T19:30:28.235Z,13.20
2017-05-04T19:32:56.272Z,13.10
2017-05-04T19:35:23.376Z,13.00
2017-05-04T19:37:51.587Z,12.90
2017-05-04T19:40:18.785Z,12.90
2017-05-04T19:42:46.769Z,13.00
2017-05-04T19:45:14.692Z,12.90
2017-05-04T19:47:41.634Z,12.90
2017-05-04T19:50:08.647Z,12.90
2017-05-04T19:52:35.634Z,13.00
2017-05-04T19:55:03.607Z,12.90
2017-05-04T19:57:31.042Z,12.80
2017-05-04T19:59:58.614Z,12.80
2017-05-04T20:02:26.264Z,12.80
2017-05-04T20:04:53.663Z,12.70
2017-05-04T20:07:22.704Z,12.70
2017-05-04T20:09:50.593Z,12.60
2017-05-04T20:12:18.451Z,12.50
2017-05-04T20:14:47.207Z,12.50
2017-05-04T20:17:14.622Z,12.50
2017-05-04T20:19:41.584Z,12.50
2017-05-04T20:22:09.321Z,12.40
2017-05-04T20:24:39.638Z,12.40
2017-05-04T20:27:11.318Z,12.30
2017-05-04T20:29:38.384Z,12.20
2017-05-04T20:32:07.449Z,12.20
2017-05-04T20:34:34.563Z,12.20
2017-05-04T20:37:08.810Z,12.10
2017-05-04T20:39:35.886Z,12.20
2017-05-04T20:42:03.574Z,12.10
2017-05-04T20:44:31.492Z,12.20
2017-05-04T20:46:58.470Z,12.20
2017-05-04T20:49:25.587Z,12.20
2017-05-04T20:51:53.602Z,12.30
2017-05-04T20:54:20.575Z,12.30
2017-05-04T20:56:47.568Z,12.30
2017-05-04T20:59:14.692Z,12.30
2017-05-04T21:01:41.639Z,12.40
2017-05-04T21:04:09.613Z,12.30
2017-05-04T21:06:36.613Z,12.30
2017-05-04T21:09:03.598Z,12.20
2017-05-04T21:11:30.606Z,12.20
2017-05-04T21:13:57.595Z,12.10
2017-05-04T21:16:24.531Z,12.20
2017-05-04T21:18:52.594Z,12.30
2017-05-04T21:21:19.574Z,12.30
2017-05-04T21:23:46.557Z,12.30
2017-05-04T21:26:14.023Z,12.20
2017-05-04T21:28:41.060Z,12.20
2017-05-04T21:31:08.585Z,12.10
2017-05-04T21:33:36.712Z,12.00
2017-05-04T21:36:03.793Z,12.00
2017-05-04T21:38:31.590Z,12.10
2017-05-04T21:40:58.671Z,12.10
2017-05-04T21:43:25.778Z,12.00
2017-05-04T21:45:52.763Z,12.00
2017-05-04T21:48:20.107Z,11.90
2017-05-04T21:50:47.159Z,11.90
2017-05-04T21:53:14.148Z,11.90
2017-05-04T21:55:41.181Z,11.90
2017-05-04T21:58:08.201Z,12.00
2017-05-04T22:00:35.283Z,12.00
2017-05-04T22:03:02.236Z,12.00
2017-05-04T22:05:29.208Z,12.10
2017-05-04T22:07:56.243Z,12.10
2017-05-04T22:10:23.217Z,12.10
2017-05-04T22:12:50.935Z,12.00
2017-05-04T22:15:18.280Z,12.00
2017-05-04T22:17:45.698Z,12.00
2017-05-04T22:20:13.422Z,11.90
2017-05-04T22:22:40.404Z,11.90
2017-05-04T22:25:08.090Z,11.90
2017-05-04T22:27:35.019Z,11.90
2017-05-04T22:30:03.562Z,11.90
2017-05-04T22:32:30.498Z,12.00
2017-05-04T22:34:57.508Z,12.10
2017-05-04T22:37:24.472Z,12.20
2017-05-04T22:39:51.421Z,12.30
2017-05-04T22:42:18.436Z,12.30
2017-05-04T22:44:46.132Z,12.40
2017-05-04T22:47:13.902Z,12.50
2017-05-04T22:59:25.923Z,12.10
2017-05-04T23:01:52.953Z,12.10
2017-05-04T23:04:19.897Z,12.10
2017-05-04T23:06:46.944Z,12.00
2017-05-04T23:09:13.878Z,12.00
2017-05-04T23:11:40.847Z,12.00
2017-05-04T23:14:08.435Z,12.00
2017-05-04T23:16:35.131Z,12.00
2017-05-04T23:19:02.432Z,12.00
2017-05-04T23:21:29.518Z,11.90
2017-05-04T23:23:56.442Z,11.90
2017-05-04T23:26:23.411Z,11.90
2017-05-04T23:28:51.415Z,11.90
2017-05-04T23:31:18.536Z,12.00
2017-05-04T23:33:46.407Z,12.00
2017-05-04T23:36:13.442Z,12.00
2017-05-04T23:38:40.571Z,12.00
2017-05-04T23:41:07.550Z,12.00
2017-05-04T23:43:34.536Z,12.00
2017-05-04T23:46:02.328Z,12.00
2017-05-04T23:48:29.850Z,12.00
2017-05-04T23:50:57.545Z,11.90
2017-05-04T23:53:24.477Z,11.90
2017-05-04T23:55:51.585Z,11.90
2017-05-04T23:58:19.492Z,11.80
